Terminal Aerodrome Forecast
Issued by NWS Upton, NY

Home | Current Version | Previous Version | Text Only | Print | Product List | Glossary On
Versions: 1 2 3 4 5 6 7 8 9 10 11 12 13 14 15 16 17 18 19 20 21 22 23 24 25 26 27 28 29 30 31 32 33 34 35 36 37 38 39 40 41 42 43
704
FTUS41 KOKX 182044 AAB
TAFJFK
TAF AMD
KJFK 182044Z 1821/1924 36010KT P6SM OVC012
     FM182300 35009KT P6SM BKN020 OVC030
     FM190600 33006KT P6SM SCT025 BKN050
     FM191300 31007KT P6SM FEW040 SCT100
     FM191900 31008KT P6SM SCT025=

USA.gov is the U.S. government's official web portal to all federal, state and local government web resources and services.